createdAt,value
2018-12-17T00:02:33.207Z,2.20
2018-12-17T00:05:08.867Z,2.20
2018-12-17T00:07:44.776Z,2.20
2018-12-17T00:10:18.901Z,2.30
2018-12-17T00:12:55.297Z,2.30
2018-12-17T00:15:36.506Z,2.30
2018-12-17T00:18:10.367Z,2.30
2018-12-17T00:20:44.551Z,2.30
2018-12-17T00:23:18.101Z,2.30
2018-12-17T00:25:53.450Z,2.30
2018-12-17T00:28:33.859Z,2.30
2018-12-17T00:31:07.618Z,2.30
2018-12-17T00:33:40.887Z,2.40
2018-12-17T00:36:15.239Z,2.30
2018-12-17T00:38:47.227Z,2.40
2018-12-17T00:41:22.616Z,2.40
2018-12-17T00:43:56.527Z,2.40
2018-12-17T00:46:30.365Z,2.40
2018-12-17T00:49:01.800Z,2.40
2018-12-17T00:51:37.754Z,2.40
2018-12-17T00:54:13.351Z,2.40
2018-12-17T00:56:51.758Z,2.40
2018-12-17T00:59:25.792Z,2.30
2018-12-17T01:01:59.657Z,2.40
2018-12-17T01:04:32.866Z,2.40
2018-12-17T01:07:08.194Z,2.40
2018-12-17T01:09:42.134Z,2.40
2018-12-17T01:12:21.556Z,2.40
2018-12-17T01:14:59.400Z,2.40
2018-12-17T01:17:33.124Z,2.40
2018-12-17T01:20:07.904Z,2.40
2018-12-17T01:22:41.203Z,2.50
2018-12-17T01:25:14.350Z,2.50
2018-12-17T01:27:45.885Z,2.60
2018-12-17T01:30:21.232Z,2.60
2018-12-17T01:32:55.042Z,2.70
2018-12-17T01:35:32.528Z,2.70
2018-12-17T01:38:06.606Z,2.70
2018-12-17T01:40:42.766Z,2.70
2018-12-17T01:43:24.890Z,2.70
2018-12-17T01:46:01.551Z,2.70
2018-12-17T01:48:35.371Z,2.80
2018-12-17T01:51:09.110Z,2.80
2018-12-17T01:53:42.268Z,2.90
2018-12-17T02:03:52.385Z,2.80
2018-12-17T02:06:26.123Z,2.80
2018-12-17T02:09:06.224Z,2.70
2018-12-17T02:11:43.757Z,2.70
2018-12-17T02:14:21.871Z,2.60
2018-12-17T02:16:53.216Z,2.50
2018-12-17T02:19:28.948Z,2.50
2018-12-17T02:22:02.637Z,2.60
2018-12-17T02:24:36.482Z,2.60
2018-12-17T02:27:16.848Z,2.50
2018-12-17T02:29:50.345Z,2.50
2018-12-17T02:32:23.668Z,2.50
2018-12-17T02:35:03.255Z,2.50
2018-12-17T02:37:43.215Z,2.50
2018-12-17T02:40:17.080Z,2.60
2018-12-17T02:42:56.615Z,2.50
2018-12-17T02:45:38.701Z,2.60
2018-12-17T02:48:16.432Z,2.60
2018-12-17T02:50:50.453Z,2.50
2018-12-17T02:53:23.549Z,2.60
2018-12-17T02:56:05.218Z,2.60
2018-12-17T02:58:43.974Z,2.60
2018-12-17T03:01:14.227Z,2.60
2018-12-17T03:03:49.551Z,2.60
2018-12-17T03:19:02.890Z,2.90
2018-12-17T03:21:36.075Z,2.90
2018-12-17T03:24:09.386Z,2.90
2018-12-17T03:26:42.329Z,2.80
2018-12-17T03:29:15.632Z,2.80
2018-12-17T03:31:48.974Z,2.80
2018-12-17T03:34:22.905Z,2.80
2018-12-17T03:36:55.953Z,2.90
2018-12-17T03:39:30.105Z,2.90
2018-12-17T03:42:03.429Z,2.80
2018-12-17T03:44:38.788Z,2.80
2018-12-17T03:47:18.687Z,2.80
2018-12-17T03:49:53.510Z,2.80
2018-12-17T03:52:30.986Z,2.90
2018-12-17T03:55:07.243Z,2.90
2018-12-17T03:57:40.678Z,2.90
2018-12-17T04:00:18.068Z,2.90
2018-12-17T04:02:51.939Z,2.90
2018-12-17T04:05:25.066Z,2.90
2018-12-17T04:08:00.443Z,2.90
2018-12-17T04:10:33.513Z,2.90
2018-12-17T04:13:06.935Z,2.90
2018-12-17T04:15:40.401Z,2.90
2018-12-17T04:18:23.310Z,2.90
2018-12-17T04:20:54.396Z,2.90
2018-12-17T04:23:27.660Z,2.90
2018-12-17T04:26:01.165Z,3.00
2018-12-17T04:28:34.431Z,3.00
2018-12-17T04:31:08.285Z,3.00
2018-12-17T04:33:42.503Z,2.90
2018-12-17T04:36:18.319Z,2.90
2018-12-17T04:38:52.120Z,2.90
2018-12-17T04:41:27.516Z,2.90
2018-12-17T04:44:07.693Z,2.90
2018-12-17T04:46:45.626Z,2.90
2018-12-17T04:49:19.371Z,2.90
2018-12-17T04:51:52.544Z,2.90
2018-12-17T04:54:32.138Z,2.90
2018-12-17T04:57:05.384Z,2.80
2018-12-17T04:59:38.500Z,2.80
2018-12-17T05:02:14.152Z,2.80
2018-12-17T05:04:50.241Z,2.90
2018-12-17T05:07:23.964Z,2.80
2018-12-17T05:09:57.792Z,2.80
2018-12-17T05:12:36.118Z,2.80
2018-12-17T05:15:10.071Z,2.80
2018-12-17T05:17:44.003Z,2.80
2018-12-17T05:20:17.334Z,2.90
2018-12-17T05:28:05.933Z,3.00
2018-12-17T05:33:20.330Z,3.10
2018-12-17T05:38:33.034Z,3.20
2018-12-17T05:41:06.410Z,3.30
2018-12-17T05:43:48.505Z,3.20
2018-12-17T05:46:19.649Z,3.20
2018-12-17T05:48:55.964Z,3.10
2018-12-17T05:51:32.536Z,3.10
2018-12-17T05:54:06.613Z,3.20
2018-12-17T05:56:38.754Z,3.10
2018-12-17T05:59:12.711Z,3.20
2018-12-17T06:01:52.343Z,3.20
2018-12-17T06:04:26.326Z,3.30
2018-12-17T06:06:59.562Z,3.30
2018-12-17T06:09:33.032Z,3.40
2018-12-17T06:12:12.429Z,3.40
2018-12-17T06:14:46.192Z,3.40
2018-12-17T06:17:19.334Z,3.50
2018-12-17T06:19:52.500Z,3.50
2018-12-17T06:22:32.019Z,3.40
2018-12-17T06:25:06.401Z,3.40
2018-12-17T06:27:40.060Z,3.50
2018-12-17T06:30:14.126Z,3.50
2018-12-17T06:32:48.157Z,3.50
2018-12-17T06:35:25.660Z,3.60
2018-12-17T06:38:03.976Z,3.60
2018-12-17T06:40:37.644Z,3.60
2018-12-17T06:43:10.956Z,3.60
2018-12-17T06:45:51.340Z,3.60
2018-12-17T06:48:29.373Z,3.60
2018-12-17T06:51:03.413Z,3.60
2018-12-17T06:53:40.438Z,3.50
2018-12-17T06:56:18.518Z,3.50
2018-12-17T06:58:52.983Z,3.50
2018-12-17T07:01:34.760Z,3.50
2018-12-17T07:04:13.888Z,3.60
2018-12-17T07:06:47.117Z,3.60
2018-12-17T07:09:23.425Z,3.60
2018-12-17T07:11:57.218Z,3.60
2018-12-17T07:14:36.277Z,3.60
2018-12-17T07:17:05.512Z,3.60
2018-12-17T07:19:39.471Z,3.60
2018-12-17T07:22:13.036Z,3.60
2018-12-17T07:24:47.056Z,3.60
2018-12-17T07:27:20.291Z,3.70
2018-12-17T07:29:53.394Z,3.70
2018-12-17T07:32:28.736Z,3.70
2018-12-17T07:35:02.362Z,3.80
2018-12-17T07:37:35.653Z,3.80
2018-12-17T07:40:09.142Z,3.80
2018-12-17T07:42:40.920Z,3.80
2018-12-17T07:45:14.097Z,3.90
2018-12-17T07:47:47.309Z,4.00
2018-12-17T07:50:21.682Z,4.00
2018-12-17T07:52:55.474Z,4.10
2018-12-17T07:55:28.921Z,4.10
2018-12-17T07:58:02.206Z,4.10
2018-12-17T08:00:35.589Z,4.10
2018-12-17T08:03:13.090Z,4.10
2018-12-17T08:05:46.953Z,4.10
2018-12-17T08:08:20.089Z,4.10
2018-12-17T08:10:53.482Z,4.10
2018-12-17T08:13:27.662Z,4.20
2018-12-17T08:16:03.778Z,4.20
2018-12-17T08:18:37.532Z,4.10
2018-12-17T08:21:11.571Z,4.10
2018-12-17T08:23:50.920Z,4.20
2018-12-17T08:26:27.186Z,4.30
2018-12-17T08:29:05.273Z,4.40
2018-12-17T08:31:43.253Z,4.50
2018-12-17T08:34:17.120Z,4.50
2018-12-17T08:36:55.304Z,4.70
2018-12-17T08:39:28.944Z,4.80
2018-12-17T08:42:02.008Z,4.80
2018-12-17T08:44:37.485Z,4.90
2018-12-17T08:47:15.621Z,4.90
2018-12-17T08:49:49.169Z,5.00
2018-12-17T08:52:23.362Z,5.00
2018-12-17T09:02:42.451Z,4.80
2018-12-17T09:05:17.313Z,4.80
2018-12-17T09:07:56.721Z,4.90
2018-12-17T09:10:30.798Z,4.90
2018-12-17T09:13:10.228Z,5.00
2018-12-17T09:15:43.940Z,5.10
2018-12-17T09:18:17.234Z,5.10
2018-12-17T09:20:50.453Z,5.20
2018-12-17T09:23:24.446Z,5.30
2018-12-17T09:25:57.481Z,5.40
2018-12-17T09:28:30.617Z,5.50
2018-12-17T09:31:06.016Z,5.60
2018-12-17T09:33:46.047Z,5.90
2018-12-17T09:36:21.658Z,6.20
2018-12-17T09:39:01.183Z,6.50
2018-12-17T09:41:34.925Z,6.60
2018-12-17T09:44:08.834Z,6.60
2018-12-17T09:46:42.673Z,6.70
2018-12-17T09:49:15.976Z,6.60
2018-12-17T09:51:49.165Z,6.50
2018-12-17T09:54:23.082Z,6.30
2018-12-17T09:56:57.012Z,6.30
2018-12-17T09:59:33.454Z,6.30
2018-12-17T10:02:13.445Z,6.30
2018-12-17T10:04:55.772Z,6.30
2018-12-17T10:07:30.550Z,6.20
2018-12-17T10:10:04.943Z,6.30
2018-12-17T10:12:38.081Z,6.30
2018-12-17T10:15:13.471Z,6.20
2018-12-17T10:17:47.292Z,6.20
2018-12-17T10:20:21.449Z,6.20
2018-12-17T10:22:55.573Z,6.20
2018-12-17T10:25:26.761Z,6.20
2018-12-17T10:28:13.529Z,6.10
2018-12-17T10:30:46.854Z,6.10
2018-12-17T10:33:20.894Z,6.00
2018-12-17T10:35:56.217Z,6.00
2018-12-17T10:38:32.332Z,5.90
2018-12-17T10:41:05.990Z,5.90
2018-12-17T10:43:45.266Z,6.00
2018-12-17T10:46:19.092Z,6.00
2018-12-17T10:48:52.249Z,6.00
2018-12-17T10:51:26.287Z,6.10
2018-12-17T10:53:57.540Z,6.20
2018-12-17T10:56:30.781Z,6.50
2018-12-17T10:59:04.322Z,6.80
2018-12-17T11:02:08.085Z,6.90
2018-12-17T11:04:46.139Z,7.10
2018-12-17T11:07:22.336Z,7.40
2018-12-17T11:09:56.345Z,7.60
2018-12-17T11:12:30.534Z,7.70
2018-12-17T11:15:04.182Z,7.70
2018-12-17T11:17:44.759Z,7.70
2018-12-17T11:20:20.009Z,7.60
2018-12-17T11:22:59.747Z,7.60
2018-12-17T11:25:30.941Z,7.60
2018-12-17T11:28:10.415Z,7.70
2018-12-17T11:30:46.504Z,7.80
2018-12-17T11:33:17.782Z,7.90
2018-12-17T11:35:53.452Z,7.90
2018-12-17T11:38:27.102Z,7.80
2018-12-17T11:41:01.052Z,7.90
2018-12-17T11:43:34.389Z,7.80
2018-12-17T11:46:10.585Z,7.90
2018-12-17T11:48:48.957Z,7.90
2018-12-17T11:51:23.544Z,7.90
2018-12-17T11:53:56.797Z,7.90
2018-12-17T11:56:39.113Z,7.90
2018-12-17T11:59:12.502Z,7.90
2018-12-17T12:01:47.655Z,7.90
2018-12-17T12:04:21.042Z,7.80
2018-12-17T12:06:56.386Z,7.80
2018-12-17T12:14:31.783Z,7.80
2018-12-17T12:17:08.482Z,7.80
2018-12-17T12:19:44.386Z,7.70
2018-12-17T12:22:24.266Z,7.60
2018-12-17T12:25:02.328Z,7.60
2018-12-17T12:27:38.855Z,7.60
2018-12-17T12:30:12.798Z,7.70
2018-12-17T12:32:44.627Z,7.80
2018-12-17T12:35:20.712Z,7.90
2018-12-17T12:37:58.820Z,8.00
2018-12-17T12:40:33.249Z,8.00
2018-12-17T12:43:06.801Z,8.00
2018-12-17T12:45:37.972Z,8.10
2018-12-17T12:48:13.476Z,8.10
2018-12-17T12:50:47.342Z,8.00
2018-12-17T12:53:29.261Z,7.90
2018-12-17T12:56:02.858Z,7.90
2018-12-17T12:58:36.843Z,7.90
2018-12-17T13:01:10.108Z,7.80
2018-12-17T13:03:46.652Z,7.70
2018-12-17T13:06:20.439Z,7.50
2018-12-17T13:08:53.569Z,7.50
2018-12-17T13:11:26.761Z,7.40
2018-12-17T13:14:00.021Z,7.30
2018-12-17T13:19:08.787Z,7.30
2018-12-17T13:21:42.585Z,7.20
2018-12-17T13:24:20.409Z,7.10
2018-12-17T13:26:54.832Z,7.10
2018-12-17T13:29:30.982Z,7.10
2018-12-17T13:32:07.158Z,7.00
2018-12-17T13:34:40.767Z,6.90
2018-12-17T13:37:20.218Z,6.90
2018-12-17T13:39:53.997Z,6.80
2018-12-17T13:42:28.002Z,6.80
2018-12-17T13:45:03.889Z,6.90
2018-12-17T13:47:39.702Z,6.80
2018-12-17T13:50:18.609Z,6.80
2018-12-17T13:52:50.706Z,6.80
2018-12-17T13:55:28.154Z,6.80
2018-12-17T13:58:01.735Z,6.80
2018-12-17T14:00:38.142Z,6.80
2018-12-17T14:03:12.020Z,6.70
2018-12-17T14:05:43.499Z,6.80
2018-12-17T14:08:15.763Z,6.80
2018-12-17T14:10:53.510Z,6.80
2018-12-17T14:13:27.442Z,6.80
2018-12-17T14:16:12.646Z,6.70
2018-12-17T14:18:53.427Z,6.70
2018-12-17T14:34:12.212Z,6.40
2018-12-17T14:36:45.497Z,6.40
2018-12-17T14:39:18.624Z,6.40
2018-12-17T14:41:51.703Z,6.30
2018-12-17T14:44:32.159Z,6.30
2018-12-17T14:47:12.122Z,6.20
2018-12-17T14:49:43.985Z,6.30
2018-12-17T14:52:17.417Z,6.20
2018-12-17T14:54:55.667Z,6.20
2018-12-17T14:57:29.440Z,6.20
2018-12-17T15:00:02.854Z,6.10
2018-12-17T15:02:38.185Z,6.10
2018-12-17T15:05:11.919Z,6.10
2018-12-17T15:07:45.181Z,6.00
2018-12-17T15:10:19.005Z,6.00
2018-12-17T15:12:52.262Z,6.00
2018-12-17T15:15:32.973Z,6.00
2018-12-17T15:18:06.674Z,5.90
2018-12-17T15:20:38.025Z,5.90
2018-12-17T15:23:11.325Z,5.90
2018-12-17T15:25:50.773Z,5.80
2018-12-17T15:28:24.506Z,5.80
2018-12-17T15:30:58.518Z,5.80
2018-12-17T15:33:31.937Z,5.80
2018-12-17T15:36:05.855Z,5.80
2018-12-17T15:38:45.256Z,5.80
2018-12-17T15:41:19.274Z,5.70
2018-12-17T15:43:53.397Z,5.80
2018-12-17T15:46:31.674Z,5.70
2018-12-17T15:49:03.429Z,5.70
2018-12-17T15:51:36.722Z,5.70
2018-12-17T15:54:13.106Z,5.70
2018-12-17T15:56:46.999Z,5.60
2018-12-17T15:59:20.940Z,5.50
2018-12-17T16:01:54.713Z,5.60
2018-12-17T16:04:30.261Z,5.50
2018-12-17T16:07:08.577Z,5.50
2018-12-17T16:09:40.288Z,5.40
2018-12-17T16:12:14.254Z,5.40
2018-12-17T16:14:47.298Z,5.40
2018-12-17T16:17:20.479Z,5.50
2018-12-17T16:19:55.792Z,5.50
2018-12-17T16:22:27.465Z,5.50
2018-12-17T16:25:05.939Z,5.50
2018-12-17T16:27:39.937Z,5.50
2018-12-17T16:30:14.654Z,5.40
2018-12-17T16:32:48.529Z,5.40
2018-12-17T16:35:21.647Z,5.40
2018-12-17T16:42:57.233Z,5.20
2018-12-17T16:48:03.545Z,5.30
2018-12-17T16:50:36.836Z,5.20
2018-12-17T16:53:13.042Z,5.30
2018-12-17T16:55:48.950Z,5.30
2018-12-17T16:58:28.933Z,5.30
2018-12-17T17:01:02.763Z,5.30
2018-12-17T17:03:42.020Z,5.20
2018-12-17T17:06:15.396Z,5.20
2018-12-17T17:08:49.506Z,5.20
2018-12-17T17:11:23.482Z,5.30
2018-12-17T17:14:01.881Z,5.30
2018-12-17T17:16:41.745Z,5.30
2018-12-17T17:19:15.622Z,5.30
2018-12-17T17:21:49.477Z,5.30
2018-12-17T17:24:23.307Z,5.30
2018-12-17T17:26:56.909Z,5.30
2018-12-17T17:29:31.070Z,5.40
2018-12-17T17:32:12.018Z,5.30
2018-12-17T17:34:46.326Z,5.40
2018-12-17T17:37:24.536Z,5.30
2018-12-17T17:39:58.589Z,5.30
2018-12-17T17:42:38.551Z,5.30
2018-12-17T17:45:12.372Z,5.30
2018-12-17T17:47:46.379Z,5.30
2018-12-17T17:55:29.638Z,5.30
2018-12-17T17:58:01.099Z,5.30
2018-12-17T18:00:36.585Z,5.30
2018-12-17T18:03:12.361Z,5.30
2018-12-17T18:05:46.127Z,5.40
2018-12-17T18:08:19.347Z,5.30
2018-12-17T18:10:52.546Z,5.30
2018-12-17T18:13:25.580Z,5.30
2018-12-17T18:15:59.550Z,5.30
2018-12-17T18:18:32.704Z,5.30
2018-12-17T18:21:05.767Z,5.30
2018-12-17T18:23:47.497Z,5.30
2018-12-17T18:26:26.481Z,5.20
2018-12-17T18:28:59.857Z,5.20
2018-12-17T18:31:34.041Z,5.10
2018-12-17T18:34:07.516Z,5.10
2018-12-17T18:36:41.636Z,5.10
2018-12-17T18:39:17.752Z,5.10
2018-12-17T18:41:53.526Z,5.10
2018-12-17T18:44:27.221Z,5.10
2018-12-17T18:47:01.192Z,5.10
2018-12-17T18:49:34.406Z,5.00
2018-12-17T18:52:08.358Z,5.00
2018-12-17T18:54:41.754Z,5.00
2018-12-17T19:02:18.990Z,4.90
2018-12-17T19:04:56.110Z,5.00
2018-12-17T19:07:28.053Z,5.00
2018-12-17T19:10:01.139Z,4.90
2018-12-17T19:12:37.141Z,4.90
2018-12-17T19:15:17.840Z,4.90
2018-12-17T19:18:04.289Z,4.90
2018-12-17T19:20:37.738Z,4.90
2018-12-17T19:23:13.300Z,4.80
2018-12-17T19:25:49.510Z,4.80
2018-12-17T19:28:23.400Z,4.80
2018-12-17T19:30:56.427Z,4.80
2018-12-17T19:33:36.110Z,4.80
2018-12-17T19:36:10.683Z,4.80
2018-12-17T19:38:46.066Z,4.80
2018-12-17T19:41:19.681Z,4.70
2018-12-17T19:43:53.145Z,4.70
2018-12-17T19:46:31.464Z,4.70
2018-12-17T19:49:11.444Z,4.70
2018-12-17T19:51:47.607Z,4.60
2018-12-17T19:54:21.265Z,4.60
2018-12-17T19:56:54.303Z,4.60
2018-12-17T19:59:27.794Z,4.60
2018-12-17T20:02:01.164Z,4.50
2018-12-17T20:14:45.257Z,4.40
2018-12-17T20:17:18.437Z,4.40
2018-12-17T20:19:52.824Z,4.50
2018-12-17T20:22:27.033Z,4.60
2018-12-17T20:25:07.546Z,4.70
2018-12-17T20:27:41.361Z,4.80
2018-12-17T20:30:15.425Z,4.80
2018-12-17T20:32:55.428Z,4.80
2018-12-17T20:35:29.297Z,4.80
2018-12-17T20:38:02.432Z,4.90
2018-12-17T20:40:33.868Z,4.90
2018-12-17T20:43:06.980Z,4.80
2018-12-17T20:45:41.083Z,4.80
2018-12-17T20:48:14.286Z,4.80
2018-12-17T20:53:39.753Z,4.60
2018-12-17T20:56:23.461Z,4.60
2018-12-17T20:58:59.796Z,4.40
2018-12-17T21:01:39.817Z,4.40
2018-12-17T21:04:20.109Z,4.40
2018-12-17T21:07:00.341Z,4.30
2018-12-17T21:09:32.096Z,4.30
2018-12-17T21:12:13.594Z,4.30
2018-12-17T21:14:55.720Z,4.30
2018-12-17T21:17:29.101Z,4.30
2018-12-17T21:20:02.247Z,4.30
2018-12-17T21:22:35.721Z,4.30
2018-12-17T21:25:27.755Z,4.30
2018-12-17T21:28:09.718Z,4.40
2018-12-17T21:30:43.171Z,4.30
2018-12-17T21:33:22.944Z,4.40
2018-12-17T21:36:02.872Z,4.40
2018-12-17T21:38:36.902Z,4.40
2018-12-17T21:41:10.530Z,4.50
2018-12-17T21:43:49.852Z,4.50
2018-12-17T21:46:28.050Z,4.50
2018-12-17T21:49:03.413Z,4.50
2018-12-17T21:51:37.429Z,4.50
2018-12-17T21:54:17.343Z,4.50
2018-12-17T21:56:57.170Z,4.40
2018-12-17T21:59:30.866Z,4.30
2018-12-17T22:02:04.947Z,4.30
2018-12-17T22:04:45.165Z,4.30
2018-12-17T22:07:21.194Z,4.30
2018-12-17T22:09:54.977Z,4.30
2018-12-17T22:12:29.345Z,4.30
2018-12-17T22:15:08.813Z,4.40
2018-12-17T22:17:42.682Z,4.50
2018-12-17T22:20:16.021Z,4.50
2018-12-17T22:22:54.226Z,4.50
2018-12-17T22:25:35.153Z,4.50
2018-12-17T22:28:13.204Z,4.50
2018-12-17T22:30:46.917Z,4.50
2018-12-17T22:33:26.270Z,4.50
2018-12-17T22:36:04.497Z,4.60
2018-12-17T22:38:39.752Z,4.50
2018-12-17T22:41:15.054Z,4.60
2018-12-17T22:43:46.921Z,4.60
2018-12-17T22:46:26.297Z,4.50
2018-12-17T22:48:59.809Z,4.50
2018-12-17T22:51:39.295Z,4.50
2018-12-17T22:54:20.917Z,4.50
2018-12-17T22:57:00.736Z,4.50
2018-12-17T22:59:34.598Z,4.50
2018-12-17T23:02:07.918Z,4.50
2018-12-17T23:04:41.221Z,4.50
2018-12-17T23:07:14.398Z,4.50
2018-12-17T23:09:55.176Z,4.50
2018-12-17T23:12:36.192Z,4.60
2018-12-17T23:15:17.328Z,4.50
2018-12-17T23:17:56.607Z,4.50
2018-12-17T23:20:34.207Z,4.50
2018-12-17T23:23:15.913Z,4.60
2018-12-17T23:25:49.876Z,4.60
2018-12-17T23:28:29.673Z,4.60
2018-12-17T23:31:03.705Z,4.60
2018-12-17T23:33:36.641Z,4.60
2018-12-17T23:36:09.920Z,4.60
2018-12-17T23:38:43.209Z,4.60
2018-12-17T23:41:16.434Z,4.70
2018-12-17T23:43:50.343Z,4.70
2018-12-17T23:46:23.572Z,4.70
2018-12-17T23:48:56.646Z,4.70
2018-12-17T23:51:38.696Z,4.80
2018-12-17T23:54:12.176Z,4.80
2018-12-17T23:56:47.863Z,4.90
2018-12-17T23:59:21.710Z,4.80
